Accueil
METAR-TAF:

METAR-TAF

Aéroports :

Mineral Wells Airport

Mineral Wells, Texas, États-Unis

latitude: 32-46-54N, longitude: 098-03-37W, altitude: 297 m

Observation

Le bulletin a été fait il y a 29 minutes, à 10:53 UTC
Vent 12 kt de nord/nord-ouest avec des rafales jusqu'à 18 kt
Température 19°C
Humidité 94%
Pression 1013 hPa
Visibilité: 6.4 km
Ciel couvert à une hauteur de 700 ft
pluie faible, brume

METAR: KMWL 221053Z AUTO 34012G18KT 4SM -RA BR OVC007 19/18 A2992 RMK AO2 SLP120 P0004 T01940183

Heure: 06:22 (11:22 UTC)


TAF: absent

Observations et prévisions météorologiques de plus de 4000 aéroports (messages METAR et TAF).

Les stations disponibles sont représentées par des disques jaunes et rouges sur la carte.

Passer la souris dessus pour voir le nom de la station.

Cliquer dessus pour voir les observations et prévisions météorologiques.

Pour changer de carte: cliquez sur les boutons verts avec une croix noire pour zoomer, sur le bouton vert avec un tiret pour effectuer un zoom arrière, ou sur les flèches vertes pour les cartes adjacentes.


METAR-TAF: